createdAt,value
2023-02-12T00:01:36.475Z,11.14
2023-02-12T00:04:24.993Z,11.27
2023-02-12T00:07:13.219Z,11.25
2023-02-12T00:09:54.953Z,11.31
2023-02-12T00:12:37.142Z,11.37
2023-02-12T00:15:26.052Z,11.40
2023-02-12T00:18:15.272Z,11.47
2023-02-12T00:20:56.967Z,11.37
2023-02-12T00:23:47.324Z,11.40
2023-02-12T00:26:30.944Z,11.43
2023-02-12T00:29:13.152Z,11.35
2023-02-12T00:32:01.967Z,11.29
2023-02-12T00:34:50.178Z,11.36
2023-02-12T00:37:32.009Z,11.44
2023-02-12T00:40:21.224Z,11.50
2023-02-12T00:43:02.924Z,11.57
2023-02-12T00:45:53.413Z,11.60
2023-02-12T00:48:36.948Z,11.59
2023-02-12T00:51:25.221Z,11.61
2023-02-12T00:54:06.961Z,11.54
2023-02-12T00:56:57.015Z,11.44
2023-02-12T00:59:39.967Z,11.56
2023-02-12T01:02:28.857Z,11.35
2023-02-12T01:05:18.950Z,11.51
2023-02-12T01:08:01.277Z,11.53
2023-02-12T01:10:49.965Z,11.36
2023-02-12T01:13:42.952Z,11.39
2023-02-12T01:16:39.193Z,11.35
2023-02-12T01:19:28.911Z,11.58
2023-02-12T01:22:12.008Z,11.58
2023-02-12T01:25:00.251Z,11.72
2023-02-12T01:27:41.894Z,11.56
2023-02-12T01:30:31.519Z,11.39
2023-02-12T01:33:25.942Z,11.43
2023-02-12T01:36:15.345Z,11.58
2023-02-12T01:38:57.902Z,11.76
2023-02-12T01:41:52.131Z,11.79
2023-02-12T01:44:38.360Z,11.72
2023-02-12T01:47:26.921Z,11.84
2023-02-12T01:50:09.274Z,11.86
2023-02-12T01:53:05.188Z,11.89
2023-02-12T01:55:51.192Z,11.65
2023-02-12T01:58:46.920Z,11.61
2023-02-12T02:01:43.382Z,11.60
2023-02-12T02:04:37.168Z,11.57
2023-02-12T02:07:19.939Z,11.49
2023-02-12T02:10:09.244Z,11.65
2023-02-12T02:13:09.972Z,11.81
2023-02-12T02:16:05.259Z,11.69
2023-02-12T02:19:01.032Z,11.70
2023-02-12T02:22:30.235Z,11.79
2023-02-12T02:25:39.967Z,11.83
2023-02-12T02:28:55.659Z,11.88
2023-02-12T02:31:55.015Z,12.08
2023-02-12T02:34:55.998Z,11.98
2023-02-12T02:37:47.323Z,12.00
2023-02-12T02:40:46.077Z,12.26
2023-02-12T02:43:52.083Z,12.29
2023-02-12T02:46:57.040Z,12.45
2023-02-12T02:50:00.210Z,12.64
2023-02-12T02:52:48.940Z,12.58
2023-02-12T02:55:45.886Z,12.84
2023-02-12T02:58:43.967Z,12.88
2023-02-12T03:01:32.612Z,13.72
2023-02-12T03:04:26.960Z,13.38
2023-02-12T03:07:52.990Z,13.61
2023-02-12T03:10:44.227Z,13.60
2023-02-12T03:13:42.927Z,13.96
2023-02-12T03:16:33.431Z,14.26
2023-02-12T03:19:32.958Z,14.48
2023-02-12T03:22:20.294Z,14.70
2023-02-12T03:25:25.881Z,14.23
2023-02-12T03:28:31.935Z,13.97
2023-02-12T03:31:20.207Z,14.33
2023-02-12T03:34:27.032Z,14.24
2023-02-12T03:37:41.246Z,14.05
2023-02-12T03:40:31.963Z,15.20
2023-02-12T03:43:44.333Z,16.17
2023-02-12T03:46:29.982Z,16.88
2023-02-12T03:49:46.860Z,17.49
2023-02-12T03:52:35.942Z,18.20
2023-02-12T03:55:19.369Z,19.04
2023-02-12T03:58:14.921Z,19.01
2023-02-12T04:01:04.929Z,19.41
2023-02-12T04:03:47.234Z,19.70
2023-02-12T04:06:36.907Z,19.91
2023-02-12T04:09:27.829Z,20.01
2023-02-12T04:12:20.892Z,20.50
2023-02-12T04:15:15.247Z,20.59
2023-02-12T04:18:12.983Z,20.72
2023-02-12T04:21:23.298Z,20.80
2023-02-12T04:24:18.837Z,20.77
2023-02-12T04:27:31.148Z,21.16
2023-02-12T04:31:04.072Z,21.33
2023-02-12T04:34:15.781Z,21.11
2023-02-12T04:37:17.906Z,21.50
2023-02-12T04:40:08.962Z,21.62
2023-02-12T04:43:00.136Z,21.47
2023-02-12T04:45:43.912Z,21.94
2023-02-12T04:48:32.247Z,21.96
2023-02-12T04:51:14.293Z,21.58
2023-02-12T04:54:02.236Z,21.72
2023-02-12T04:56:44.966Z,21.73
2023-02-12T04:59:34.230Z,21.67
2023-02-12T05:02:16.865Z,21.65
2023-02-12T05:05:05.258Z,21.65
2023-02-12T05:07:47.975Z,21.48
2023-02-12T05:10:37.170Z,21.88
2023-02-12T05:13:19.850Z,21.87
2023-02-12T05:16:04.973Z,21.74
2023-02-12T05:18:54.038Z,21.61
2023-02-12T05:21:43.238Z,22.14
2023-02-12T05:24:25.991Z,21.95
2023-02-12T05:27:16.321Z,21.91
2023-02-12T05:29:57.927Z,21.70
2023-02-12T05:32:46.269Z,21.68
2023-02-12T05:35:40.873Z,21.93
2023-02-12T05:38:30.748Z,22.32
2023-02-12T05:41:18.973Z,21.73
2023-02-12T05:44:08.410Z,22.31
2023-02-12T05:46:50.980Z,22.47
2023-02-12T05:49:40.221Z,22.70
2023-02-12T05:52:22.881Z,22.07
2023-02-12T05:55:12.172Z,22.06
2023-02-12T05:57:54.611Z,21.89
2023-02-12T06:00:44.360Z,21.88
2023-02-12T06:03:25.955Z,22.12
2023-02-12T06:06:15.011Z,22.11
2023-02-12T06:08:59.404Z,22.58
2023-02-12T06:11:47.979Z,22.42
2023-02-12T06:14:31.911Z,22.49
2023-02-12T06:17:20.875Z,22.50
2023-02-12T06:20:03.139Z,22.49
2023-02-12T06:22:51.934Z,22.66
2023-02-12T06:25:34.229Z,22.62
2023-02-12T06:28:23.055Z,22.54
2023-02-12T06:31:05.335Z,22.18
2023-02-12T06:33:53.964Z,22.57
2023-02-12T06:36:45.661Z,22.61
2023-02-12T06:39:28.898Z,22.60
2023-02-12T06:42:17.368Z,22.37
2023-02-12T06:45:00.004Z,22.65
2023-02-12T06:47:48.218Z,22.65
2023-02-12T06:50:30.966Z,22.69
2023-02-12T06:53:19.232Z,22.61
2023-02-12T06:56:01.976Z,22.45
2023-02-12T06:58:53.192Z,22.15
2023-02-12T07:01:38.186Z,22.27
2023-02-12T07:04:26.229Z,22.42
2023-02-12T07:07:08.997Z,22.16
2023-02-12T07:09:57.172Z,21.93
2023-02-12T07:12:41.911Z,22.05
2023-02-12T07:15:30.172Z,22.02
2023-02-12T07:18:12.953Z,21.98
2023-02-12T07:20:57.893Z,22.20
2023-02-12T07:23:51.032Z,21.99
2023-02-12T07:26:40.182Z,21.89
2023-02-12T07:29:22.956Z,21.85
2023-02-12T07:32:12.040Z,21.73
2023-02-12T07:34:55.342Z,21.89
2023-02-12T07:37:43.954Z,22.09
2023-02-12T07:40:26.188Z,21.89
2023-02-12T07:43:14.904Z,21.82
2023-02-12T07:46:03.902Z,21.84
2023-02-12T07:48:54.260Z,22.11
2023-02-12T07:51:36.917Z,22.07
2023-02-12T07:54:26.137Z,22.01
2023-02-12T07:57:08.969Z,21.74
2023-02-12T07:59:51.119Z,21.78
2023-02-12T08:02:40.965Z,21.75
2023-02-12T08:05:30.236Z,21.93
2023-02-12T08:08:13.272Z,21.77
2023-02-12T08:11:04.137Z,21.67
2023-02-12T08:13:47.002Z,21.73
2023-02-12T08:16:30.920Z,21.69
2023-02-12T08:19:24.880Z,21.71
2023-02-12T08:22:14.201Z,21.62
2023-02-12T08:24:55.843Z,21.62
2023-02-12T08:27:44.207Z,21.54
2023-02-12T08:30:27.092Z,21.48
2023-02-12T08:33:15.247Z,21.33
2023-02-12T08:36:18.876Z,21.16
2023-02-12T08:39:02.232Z,21.13
2023-02-12T08:41:50.977Z,21.18
2023-02-12T08:44:34.157Z,21.18
2023-02-12T08:47:22.875Z,21.09
2023-02-12T08:50:05.146Z,20.89
2023-02-12T08:52:53.959Z,20.91
2023-02-12T08:55:36.193Z,20.99
2023-02-12T08:58:24.924Z,21.02
2023-02-12T09:01:08.252Z,21.02
2023-02-12T09:03:57.956Z,20.84
2023-02-12T09:06:42.297Z,20.73
2023-02-12T09:09:31.199Z,20.84
2023-02-12T09:12:13.188Z,20.89
2023-02-12T09:15:01.954Z,20.98
2023-02-12T09:17:44.818Z,20.96
2023-02-12T09:20:33.911Z,20.92
2023-02-12T09:23:21.229Z,20.92
2023-02-12T09:26:13.999Z,20.90
2023-02-12T09:28:58.300Z,20.70
2023-02-12T09:31:47.034Z,20.63
2023-02-12T09:34:29.262Z,20.58
2023-02-12T09:37:17.960Z,20.56
2023-02-12T09:40:00.206Z,20.63
2023-02-12T09:43:11.825Z,20.51
2023-02-12T09:46:25.737Z,20.55
2023-02-12T09:49:22.872Z,20.45
2023-02-12T09:52:13.775Z,20.41
2023-02-12T09:55:03.882Z,20.39
2023-02-12T09:57:46.423Z,20.40
2023-02-12T10:00:40.002Z,20.33
2023-02-12T10:03:25.283Z,20.21
2023-02-12T10:06:19.903Z,20.09
2023-02-12T10:09:19.411Z,20.05
2023-02-12T10:12:46.853Z,20.14
2023-02-12T10:15:53.437Z,19.94
2023-02-12T10:18:59.904Z,19.89
2023-02-12T10:21:52.180Z,19.95
2023-02-12T10:25:02.941Z,19.91
2023-02-12T10:27:54.198Z,19.81
2023-02-12T10:30:55.081Z,19.75
2023-02-12T10:33:47.457Z,19.72
2023-02-12T10:36:53.351Z,19.69
2023-02-12T10:39:50.357Z,19.53
2023-02-12T10:42:51.943Z,19.56
2023-02-12T10:45:45.194Z,19.51
2023-02-12T10:48:40.919Z,19.43
2023-02-12T10:51:44.206Z,19.40
2023-02-12T10:54:49.060Z,19.33
2023-02-12T10:57:33.151Z,19.33
2023-02-12T11:00:37.181Z,19.21
2023-02-12T11:03:22.601Z,19.18
2023-02-12T11:06:38.956Z,19.25
2023-02-12T11:09:48.355Z,19.23
2023-02-12T11:12:50.969Z,19.14
2023-02-12T11:15:38.201Z,19.06
2023-02-12T11:18:34.944Z,18.97
2023-02-12T11:21:21.335Z,18.90
2023-02-12T11:24:34.962Z,18.82
2023-02-12T11:27:37.396Z,18.81
2023-02-12T11:30:28.926Z,18.77
2023-02-12T11:33:40.287Z,18.68
2023-02-12T11:36:33.881Z,18.66
2023-02-12T11:39:28.172Z,18.61
2023-02-12T11:42:32.381Z,18.55
2023-02-12T11:45:15.186Z,18.51
2023-02-12T11:48:03.864Z,18.41
2023-02-12T11:50:46.307Z,18.32
2023-02-12T11:53:49.962Z,18.25
2023-02-12T11:56:48.338Z,18.16
2023-02-12T11:59:47.936Z,18.08
2023-02-12T12:02:57.202Z,18.05
2023-02-12T12:05:54.014Z,17.91
2023-02-12T12:08:52.167Z,17.88
2023-02-12T12:12:00.946Z,17.84
2023-02-12T12:15:06.768Z,17.77
2023-02-12T12:18:22.887Z,17.62
2023-02-12T12:21:24.247Z,17.56
2023-02-12T12:24:21.862Z,17.53
2023-02-12T12:27:31.805Z,17.39
2023-02-12T12:30:52.826Z,17.42
2023-02-12T12:33:57.947Z,17.35
2023-02-12T12:37:08.415Z,17.22
2023-02-12T12:40:23.849Z,17.18
2023-02-12T12:43:24.301Z,17.11
2023-02-12T12:46:08.902Z,17.08
2023-02-12T12:49:21.386Z,16.95
2023-02-12T12:52:36.889Z,16.85
2023-02-12T12:55:42.822Z,16.79
2023-02-12T12:58:57.950Z,16.78
2023-02-12T13:02:04.266Z,16.68
2023-02-12T13:04:59.942Z,16.70
2023-02-12T13:08:04.154Z,16.65
2023-02-12T13:11:08.863Z,16.82
2023-02-12T13:14:03.170Z,16.70
2023-02-12T13:17:20.834Z,16.65
2023-02-12T13:20:39.885Z,16.55
2023-02-12T13:23:39.142Z,16.52
2023-02-12T13:26:30.930Z,16.59
2023-02-12T13:29:16.302Z,16.61
2023-02-12T13:32:14.112Z,16.56
2023-02-12T13:35:11.183Z,16.64
2023-02-12T13:38:04.005Z,16.56
2023-02-12T13:40:50.684Z,16.44
2023-02-12T13:43:55.824Z,16.36
2023-02-12T13:47:00.266Z,16.28
2023-02-12T13:50:05.011Z,16.28
2023-02-12T13:53:15.403Z,16.19
2023-02-12T13:56:35.888Z,16.20
2023-02-12T13:59:37.363Z,16.07
2023-02-12T14:02:46.050Z,16.01
2023-02-12T14:05:39.236Z,15.96
2023-02-12T14:08:44.917Z,15.80
2023-02-12T14:11:34.250Z,15.77
2023-02-12T14:14:35.909Z,15.70
2023-02-12T14:17:44.200Z,15.55
2023-02-12T14:20:48.194Z,15.59
2023-02-12T14:23:38.309Z,15.52
2023-02-12T14:26:29.909Z,15.58
2023-02-12T14:29:25.882Z,15.50
2023-02-12T14:32:52.952Z,15.46
2023-02-12T14:35:58.001Z,15.40
2023-02-12T14:38:49.874Z,15.30
2023-02-12T14:41:38.612Z,15.37
2023-02-12T14:44:30.927Z,15.35
2023-02-12T14:47:24.260Z,15.25
2023-02-12T14:50:30.998Z,15.23
2023-02-12T14:53:36.436Z,15.14
2023-02-12T14:56:30.954Z,15.15
2023-02-12T14:59:23.445Z,15.21
2023-02-12T15:02:13.896Z,15.16
2023-02-12T15:04:58.487Z,15.11
2023-02-12T15:08:07.845Z,15.02
2023-02-12T15:11:04.982Z,15.08
2023-02-12T15:14:09.698Z,15.02
2023-02-12T15:17:01.831Z,15.03
2023-02-12T15:19:56.263Z,14.99
2023-02-12T15:22:59.248Z,14.83
2023-02-12T15:25:41.993Z,14.80
2023-02-12T15:28:45.924Z,14.84
2023-02-12T15:31:37.397Z,14.81
2023-02-12T15:34:28.855Z,14.82
2023-02-12T15:37:31.944Z,14.75
2023-02-12T15:40:24.188Z,14.73
2023-02-12T15:43:15.869Z,14.60
2023-02-12T15:45:58.506Z,14.63
2023-02-12T15:48:51.861Z,14.50
2023-02-12T15:51:48.097Z,14.50
2023-02-12T15:54:30.893Z,14.50
2023-02-12T15:57:27.293Z,14.50
2023-02-12T16:00:30.930Z,14.53
2023-02-12T16:03:38.327Z,14.60
2023-02-12T16:06:24.962Z,14.95
2023-02-12T16:09:31.237Z,15.27
2023-02-12T16:12:20.870Z,15.34
2023-02-12T16:15:11.943Z,15.48
2023-02-12T16:17:56.902Z,15.48
2023-02-12T16:20:47.865Z,15.00
2023-02-12T16:23:31.905Z,14.84
2023-02-12T16:26:22.872Z,14.78
2023-02-12T16:29:12.818Z,14.66
2023-02-12T16:32:05.328Z,14.64
2023-02-12T16:34:47.834Z,14.46
2023-02-12T16:37:46.740Z,14.54
2023-02-12T16:40:34.241Z,14.32
2023-02-12T16:43:34.231Z,14.19
2023-02-12T16:46:17.656Z,14.11
2023-02-12T16:49:09.298Z,14.15
2023-02-12T16:51:51.883Z,14.09
2023-02-12T16:54:49.810Z,14.06
2023-02-12T16:57:38.753Z,14.04
2023-02-12T17:00:32.799Z,13.94
2023-02-12T17:03:23.013Z,13.94
2023-02-12T17:06:05.130Z,13.99
2023-02-12T17:08:54.137Z,14.06
2023-02-12T17:11:37.070Z,14.06
2023-02-12T17:14:27.874Z,14.11
2023-02-12T17:17:10.366Z,14.00
2023-02-12T17:20:00.909Z,13.99
2023-02-12T17:22:43.172Z,13.97
2023-02-12T17:25:31.832Z,13.93
2023-02-12T17:28:14.375Z,13.85
2023-02-12T17:31:02.990Z,13.81
2023-02-12T17:33:45.530Z,13.82
2023-02-12T17:36:41.843Z,13.78
2023-02-12T17:39:30.202Z,13.70
2023-02-12T17:42:13.842Z,13.69
2023-02-12T17:45:03.259Z,13.70
2023-02-12T17:47:47.887Z,13.64
2023-02-12T17:50:37.263Z,13.53
2023-02-12T17:53:21.132Z,13.45
2023-02-12T17:56:09.221Z,13.39
2023-02-12T17:58:51.875Z,13.58
2023-02-12T18:01:42.115Z,13.49
2023-02-12T18:04:25.026Z,13.50
2023-02-12T18:07:13.229Z,13.51
2023-02-12T18:09:55.878Z,13.50
2023-02-12T18:12:44.162Z,13.63
2023-02-12T18:15:28.795Z,13.46
2023-02-12T18:18:19.110Z,13.48
2023-02-12T18:21:01.820Z,13.55
2023-02-12T18:23:51.245Z,13.58
2023-02-12T18:26:33.898Z,13.49
2023-02-12T18:29:22.198Z,13.58
2023-02-12T18:32:04.822Z,13.43
2023-02-12T18:34:54.104Z,13.49
2023-02-12T18:37:49.877Z,13.36
2023-02-12T18:40:32.067Z,13.33
2023-02-12T18:43:20.837Z,13.36
2023-02-12T18:46:17.968Z,13.40
2023-02-12T18:49:00.220Z,13.31
2023-02-12T18:51:48.836Z,13.24
2023-02-12T18:54:31.145Z,13.18
2023-02-12T18:57:19.805Z,13.07
2023-02-12T19:00:08.824Z,13.04
2023-02-12T19:02:57.104Z,13.05
2023-02-12T19:05:39.784Z,13.04
2023-02-12T19:08:22.150Z,13.00
2023-02-12T19:11:10.824Z,12.93
2023-02-12T19:14:00.335Z,12.78
2023-02-12T19:16:43.870Z,12.63
2023-02-12T19:19:33.317Z,12.50
2023-02-12T19:22:14.802Z,12.43
2023-02-12T19:25:05.152Z,12.50
2023-02-12T19:27:47.871Z,12.46
2023-02-12T19:30:37.130Z,12.57
2023-02-12T19:33:25.809Z,12.68
2023-02-12T19:36:23.898Z,12.54
2023-02-12T19:39:13.097Z,12.56
2023-02-12T19:41:55.846Z,12.54
2023-02-12T19:44:45.651Z,12.59
2023-02-12T19:47:28.816Z,12.39
2023-02-12T19:50:18.120Z,12.23
2023-02-12T19:53:00.868Z,12.22
2023-02-12T19:55:49.131Z,12.28
2023-02-12T19:58:30.762Z,12.14
2023-02-12T20:01:27.271Z,12.18
2023-02-12T20:04:10.823Z,12.43
2023-02-12T20:07:00.241Z,12.25
2023-02-12T20:09:42.765Z,12.23
2023-02-12T20:12:31.135Z,12.25
2023-02-12T20:15:13.785Z,12.09
2023-02-12T20:18:02.163Z,12.07
2023-02-12T20:20:45.199Z,12.18
2023-02-12T20:23:34.145Z,12.06
2023-02-12T20:26:19.860Z,12.04
2023-02-12T20:29:09.086Z,11.90
2023-02-12T20:31:52.976Z,11.83
2023-02-12T20:34:50.621Z,11.70
2023-02-12T20:37:46.802Z,11.59
2023-02-12T20:40:29.032Z,11.52
2023-02-12T20:43:17.818Z,11.50
2023-02-12T20:46:20.141Z,11.51
2023-02-12T20:49:03.803Z,11.50
2023-02-12T20:51:53.788Z,11.55
2023-02-12T20:54:42.716Z,11.73
2023-02-12T20:57:32.818Z,11.74
2023-02-12T21:00:17.088Z,11.76
2023-02-12T21:03:05.817Z,11.66
2023-02-12T21:05:48.076Z,11.64
2023-02-12T21:08:36.843Z,11.60
2023-02-12T21:11:25.101Z,11.55
2023-02-12T21:14:21.796Z,11.44
2023-02-12T21:17:11.839Z,11.50
2023-02-12T21:20:00.128Z,11.35
2023-02-12T21:22:41.840Z,11.36
2023-02-12T21:25:24.119Z,11.31
2023-02-12T21:28:12.767Z,11.22
2023-02-12T21:31:01.172Z,11.25
2023-02-12T21:33:43.830Z,11.23
2023-02-12T21:36:44.646Z,11.15
2023-02-12T21:39:35.860Z,11.25
2023-02-12T21:42:18.107Z,11.40
2023-02-12T21:45:07.208Z,11.51
2023-02-12T21:47:49.146Z,11.53
2023-02-12T21:50:42.719Z,11.57
2023-02-12T21:53:25.102Z,11.58
2023-02-12T21:56:14.744Z,11.57
2023-02-12T21:58:58.032Z,11.46
2023-02-12T22:01:50.783Z,11.40
2023-02-12T22:04:39.716Z,11.44
2023-02-12T22:07:28.747Z,11.44
2023-02-12T22:10:11.058Z,11.41
2023-02-12T22:12:59.761Z,11.53
2023-02-12T22:15:42.026Z,11.66
2023-02-12T22:18:30.759Z,11.64
2023-02-12T22:21:15.088Z,11.71
2023-02-12T22:24:04.756Z,11.75
2023-02-12T22:26:53.783Z,11.66
2023-02-12T22:29:42.069Z,11.78
2023-02-12T22:32:24.971Z,11.71
2023-02-12T22:35:14.045Z,11.80
2023-02-12T22:38:02.848Z,11.76
2023-02-12T22:40:46.117Z,11.68
2023-02-12T22:43:37.710Z,11.77
2023-02-12T22:46:22.145Z,11.67
2023-02-12T22:49:10.796Z,11.78
2023-02-12T22:51:59.714Z,11.71
2023-02-12T22:54:49.033Z,11.64
2023-02-12T22:57:31.728Z,11.69
2023-02-12T23:00:14.417Z,11.57
2023-02-12T23:03:03.742Z,11.44
2023-02-12T23:05:45.928Z,11.48
2023-02-12T23:08:34.804Z,11.36
2023-02-12T23:11:23.700Z,11.32
2023-02-12T23:14:07.749Z,11.32
2023-02-12T23:16:57.165Z,11.36
2023-02-12T23:19:39.802Z,11.36
2023-02-12T23:22:28.051Z,11.57
2023-02-12T23:25:09.718Z,11.54
2023-02-12T23:27:58.000Z,11.58
2023-02-12T23:30:40.823Z,11.55
2023-02-12T23:33:29.046Z,11.58
2023-02-12T23:36:24.763Z,11.50
2023-02-12T23:39:13.007Z,11.47
2023-02-12T23:41:54.778Z,11.52
2023-02-12T23:44:43.101Z,11.58
2023-02-12T23:47:24.775Z,11.55
2023-02-12T23:50:15.173Z,11.44
2023-02-12T23:52:57.767Z,11.34
2023-02-12T23:55:48.086Z,11.36
2023-02-12T23:58:30.088Z,11.40
